Coral Ruby — 3ERR6 — position and weather

sailwx.info

Track history (hours):
 
Tides and Currents Weather Stations Pressure Air Temp Water Temp Dewpoint Dewpoint Depression Visibility Wind Speed Wind Dir Waves Ship Positions

Coral Ruby

Last reported at 2017-Dec-11 14:24 UTC. Time now 2017-Dec-13 05:22 UTC.
Position N 01°23' E 104°26'.

Length 225 m; draft 6.4 m.

Type: Cargo ship. MMSI: 370150000.

Date/timePositionNaut miles runAvg speedWind from/ knotsBaromVisibWave heightAir tempDewpointWater temp
2017-Dec-11 14:24N 01°23' E 104°26'1914.0
2017-Dec-11 13:01N 01°16' E 104°08'314.2
2017-Dec-11 12:48N 01°15' E 104°05'414.4
2017-Dec-11 12:30N 01°15' E 104°01'714.0
2017-Dec-11 12:01N 01°13' E 103°54'714.3
2017-Dec-11 11:30N 01°09' E 103°48'713.2
2017-Dec-11 11:00N 01°05' E 103°43'612.3
2017-Dec-11 10:30N 01°04' E 103°37'713.6
2017-Dec-11 10:00N 01°07' E 103°31'713.3
2017-Dec-11 09:30N 01°11' E 103°25'713.3
2017-Dec-11 08:58N 01°15' E 103°19'  
2017-Dec-07 08:27N 01°19' E 103°18'814.2
2017-Dec-07 07:54N 01°15' E 103°25'513.5
2017-Dec-07 07:30N 01°13' E 103°30'713.2
2017-Dec-07 07:00N 01°11' E 103°36'612.4
2017-Dec-07 06:30N 01°10' E 103°42'510.0
2017-Dec-07 05:59N 01°10' E 103°47'613.0
2017-Dec-07 05:30N 01°13' E 103°53'612.4
2017-Dec-07 05:00N 01°15' E 103°59'  
Track history (hours):
 
Tides and Currents Weather Stations Pressure Air Temp Water Temp Dewpoint Dewpoint Depression Visibility Wind Speed Wind Dir Waves Ship Positions

Coral Ruby

Last reported at 2017-Dec-11 14:24 UTC. Time now 2017-Dec-13 05:22 UTC.
Position N 01°23' E 104°26'.

Length 225 m; draft 6.4 m.

Type: Cargo ship. MMSI: 370150000.

Date/timePositionNaut miles runAvg speedWind from/ knotsBaromVisibWave heightAir tempDewpointWater temp
2017-Dec-11 14:24N 01°23' E 104°26'1914.0
2017-Dec-11 13:01N 01°16' E 104°08'314.2
2017-Dec-11 12:48N 01°15' E 104°05'414.4
2017-Dec-11 12:30N 01°15' E 104°01'714.0
2017-Dec-11 12:01N 01°13' E 103°54'714.3
2017-Dec-11 11:30N 01°09' E 103°48'713.2
2017-Dec-11 11:00N 01°05' E 103°43'612.3
2017-Dec-11 10:30N 01°04' E 103°37'713.6
2017-Dec-11 10:00N 01°07' E 103°31'713.3
2017-Dec-11 09:30N 01°11' E 103°25'713.3
2017-Dec-11 08:58N 01°15' E 103°19'  
2017-Dec-07 08:27N 01°19' E 103°18'814.2
2017-Dec-07 07:54N 01°15' E 103°25'513.5
2017-Dec-07 07:30N 01°13' E 103°30'713.2
2017-Dec-07 07:00N 01°11' E 103°36'612.4
2017-Dec-07 06:30N 01°10' E 103°42'510.0
2017-Dec-07 05:59N 01°10' E 103°47'613.0
2017-Dec-07 05:30N 01°13' E 103°53'612.4
2017-Dec-07 05:00N 01°15' E 103°59'  

Dump ship's entire track history